logo
Search for airport 
image banner adimage banner adimage banner ad
image banner ad

MMPB - Puebla Aeropuerto Internacional Hermanos Serdan

Located in Puebla, Mexico

ICAO - MMPB, IATA - PBC

Data provided by Airmate  

General information

Coordinates: N19°9'29" W98°22'17"
Elevation is 7361 feet MSL.
 
Rated:
View ratings:
[VIEW]
View others Airports in Puebla

Operational data

Special qualification required
Current time UTC:
Current local time:
Weather
METAR: MMPB 220143Z 35014KT 12SM SCT020 BKN090 OVC230 16/10 A3022 RMK 8/577
TAF: TAF MMPB 211613Z 2118/2218 03010KT P6SM SCT020 BKN100 TEMPO 2122/2202 5SM TSRA BKN020CB FM220200 03005KT 6SM HZ SCT015 BKN080 TEMPO 2202/2206 5SM RA BKN015CB FM220800 03005KT 5SM HZ SCT015 BKN080 TEMPO 2212/2215 3SM HZ BKN010
View NOTAMs / SUP AIP / TFR affecting this airport [VIEW]
Communications frequencies: [VIEW]

Runways:

RWY identifierQFULength (ft)Width (ft)SurfaceLDA (ft)
17178°11811148ASP
35358°11811148ASP

Airport contact information

Address: Puebla Mexico

Satellite view of MMPB